createdAt,value
2017-07-26T00:00:40.031Z,23.10
2017-07-26T00:03:06.190Z,23.09
2017-07-26T00:05:33.112Z,23.09
2017-07-26T00:07:59.298Z,23.08
2017-07-26T00:10:25.454Z,23.08
2017-07-26T00:12:51.638Z,23.08
2017-07-26T00:15:18.582Z,23.08
2017-07-26T00:17:45.488Z,23.07
2017-07-26T00:20:11.655Z,23.08
2017-07-26T00:22:38.575Z,23.07
2017-07-26T00:25:04.764Z,23.08
2017-07-26T00:27:30.942Z,23.07
2017-07-26T00:29:57.106Z,23.07
2017-07-26T00:32:24.014Z,23.07
2017-07-26T00:34:50.181Z,23.07
2017-07-26T00:37:16.371Z,23.06
2017-07-26T00:39:42.530Z,23.06
2017-07-26T00:42:08.704Z,23.06
2017-07-26T00:44:35.612Z,23.05
2017-07-26T00:47:01.779Z,23.06
2017-07-26T00:49:28.697Z,23.06
2017-07-26T00:51:54.887Z,23.05
2017-07-26T00:54:21.051Z,23.04
2017-07-26T00:56:47.226Z,23.05
2017-07-26T00:59:14.134Z,23.04
2017-07-26T01:01:40.317Z,23.05
2017-07-26T01:04:06.671Z,23.04
2017-07-26T01:06:32.840Z,23.03
2017-07-26T01:08:59.029Z,23.03
2017-07-26T01:11:25.220Z,23.03
2017-07-26T01:13:51.403Z,23.03
2017-07-26T01:16:17.565Z,23.03
2017-07-26T01:18:43.738Z,23.03
2017-07-26T01:21:10.653Z,23.03
2017-07-26T01:23:36.878Z,23.02
2017-07-26T01:26:03.059Z,23.03
2017-07-26T01:28:29.969Z,23.03
2017-07-26T01:30:56.132Z,23.03
2017-07-26T01:33:23.056Z,23.03
2017-07-26T01:35:49.232Z,23.03
2017-07-26T01:38:15.435Z,23.02
2017-07-26T01:40:41.591Z,23.02
2017-07-26T01:43:07.754Z,23.02
2017-07-26T01:45:33.923Z,23.02
2017-07-26T01:48:00.100Z,23.01
2017-07-26T01:50:26.302Z,23.01
2017-07-26T01:52:52.487Z,23.02
2017-07-26T01:55:18.733Z,23.01
2017-07-26T01:57:44.958Z,23.02
2017-07-26T02:00:11.130Z,23.01
2017-07-26T02:02:37.305Z,23.01
2017-07-26T02:05:03.474Z,23.00
2017-07-26T02:07:29.635Z,23.01
2017-07-26T02:09:56.580Z,23.01
2017-07-26T02:12:22.755Z,23.00
2017-07-26T02:14:48.971Z,23.00
2017-07-26T02:17:15.884Z,23.00
2017-07-26T02:19:42.050Z,22.99
2017-07-26T02:22:08.943Z,22.99
2017-07-26T02:24:35.112Z,22.99
2017-07-26T02:27:01.288Z,22.99
2017-07-26T02:29:27.451Z,22.99
2017-07-26T02:31:53.623Z,22.99
2017-07-26T02:34:20.542Z,22.98
2017-07-26T02:36:46.699Z,22.97
2017-07-26T02:39:13.624Z,22.97
2017-07-26T02:41:39.785Z,22.98
2017-07-26T02:44:06.685Z,22.98
2017-07-26T02:46:32.864Z,22.97
2017-07-26T02:48:59.779Z,22.97
2017-07-26T02:51:25.975Z,22.97
2017-07-26T02:53:52.143Z,22.96
2017-07-26T02:56:18.293Z,22.96
2017-07-26T02:58:44.458Z,22.95
2017-07-26T03:01:10.651Z,22.94
2017-07-26T03:03:36.838Z,22.92
2017-07-26T03:06:03.006Z,22.92
2017-07-26T03:08:29.179Z,22.93
2017-07-26T03:10:56.092Z,22.93
2017-07-26T03:13:22.260Z,22.92
2017-07-26T03:15:49.219Z,22.93
2017-07-26T03:18:15.391Z,22.92
2017-07-26T03:20:41.585Z,22.93
2017-07-26T03:23:08.503Z,22.92
2017-07-26T03:25:34.654Z,22.92
2017-07-26T03:28:02.252Z,22.91
2017-07-26T03:30:28.416Z,22.91
2017-07-26T03:32:54.596Z,22.91
2017-07-26T03:35:21.497Z,22.90
2017-07-26T03:37:47.670Z,22.90
2017-07-26T03:40:14.599Z,22.90
2017-07-26T03:42:40.762Z,22.89
2017-07-26T03:45:06.928Z,22.89
2017-07-26T03:47:33.380Z,22.88
2017-07-26T03:49:59.543Z,22.89
2017-07-26T03:52:26.470Z,22.89
2017-07-26T03:54:52.644Z,22.89
2017-07-26T03:57:18.811Z,22.88
2017-07-26T03:59:44.986Z,22.89
2017-07-26T04:02:11.146Z,22.89
2017-07-26T04:04:37.339Z,22.88
2017-07-26T04:07:03.494Z,22.89
2017-07-26T04:09:30.410Z,22.88
2017-07-26T04:11:56.577Z,22.88
2017-07-26T04:14:23.488Z,22.86
2017-07-26T04:16:49.679Z,22.87
2017-07-26T04:19:15.840Z,22.86
2017-07-26T04:21:42.015Z,22.86
2017-07-26T04:24:08.927Z,22.86
2017-07-26T04:26:35.079Z,22.87
2017-07-26T04:29:01.709Z,22.87
2017-07-26T04:31:27.883Z,22.86
2017-07-26T04:33:54.798Z,22.86
2017-07-26T04:36:21.730Z,22.85
2017-07-26T04:38:47.907Z,22.84
2017-07-26T04:41:14.840Z,22.86
2017-07-26T04:43:41.779Z,22.85
2017-07-26T04:46:07.942Z,22.85
2017-07-26T04:48:34.862Z,22.84
2017-07-26T04:51:01.434Z,22.85
2017-07-26T04:53:28.362Z,22.85
2017-07-26T04:55:54.521Z,22.85
2017-07-26T04:58:21.437Z,22.84
2017-07-26T05:00:47.666Z,22.83
2017-07-26T05:03:13.842Z,22.84
2017-07-26T05:05:40.769Z,22.83
2017-07-26T05:08:06.935Z,22.82
2017-07-26T05:10:33.390Z,22.82
2017-07-26T05:12:59.578Z,22.84
2017-07-26T05:15:25.755Z,22.84
2017-07-26T05:17:52.043Z,22.83
2017-07-26T05:20:18.208Z,22.82
2017-07-26T05:22:44.394Z,22.83
2017-07-26T05:25:10.555Z,22.83
2017-07-26T05:27:37.465Z,22.83
2017-07-26T05:30:03.654Z,22.83
2017-07-26T05:32:29.812Z,22.83
2017-07-26T05:34:55.995Z,22.81
2017-07-26T05:37:22.948Z,22.71
2017-07-26T05:39:49.884Z,22.45
2017-07-26T05:42:16.058Z,22.29
2017-07-26T05:44:42.233Z,22.24
2017-07-26T05:47:08.458Z,22.20
2017-07-26T05:49:34.660Z,22.13
2017-07-26T05:52:00.848Z,22.02
2017-07-26T05:54:27.028Z,21.96
2017-07-26T05:56:53.206Z,21.97
2017-07-26T05:59:19.820Z,21.97
2017-07-26T06:01:46.003Z,21.90
2017-07-26T06:04:12.930Z,21.85
2017-07-26T06:06:39.106Z,21.80
2017-07-26T06:09:05.275Z,21.75
2017-07-26T06:11:31.527Z,21.72
2017-07-26T06:13:57.691Z,21.69
2017-07-26T06:16:24.621Z,21.68
2017-07-26T06:18:50.803Z,21.64
2017-07-26T06:21:16.974Z,21.61
2017-07-26T06:23:43.170Z,21.53
2017-07-26T06:26:09.343Z,21.53
2017-07-26T06:28:35.540Z,21.44
2017-07-26T06:31:01.799Z,21.52
2017-07-26T06:33:27.993Z,21.61
2017-07-26T06:35:55.281Z,21.64
2017-07-26T06:38:21.477Z,21.70
2017-07-26T06:40:47.695Z,21.79
2017-07-26T06:43:14.678Z,21.86
2017-07-26T06:45:40.859Z,21.94
2017-07-26T06:48:07.066Z,21.96
2017-07-26T06:50:33.303Z,21.95
2017-07-26T06:52:59.496Z,21.94
2017-07-26T06:55:25.749Z,21.95
2017-07-26T06:57:52.381Z,21.96
2017-07-26T07:00:18.576Z,21.96
2017-07-26T07:02:44.754Z,21.98
2017-07-26T07:05:10.948Z,21.94
2017-07-26T07:07:37.123Z,21.86
2017-07-26T07:10:03.303Z,21.78
2017-07-26T07:12:29.912Z,21.81
2017-07-26T07:14:56.087Z,21.85
2017-07-26T07:17:23.023Z,21.83
2017-07-26T07:19:49.965Z,21.81
2017-07-26T07:22:16.150Z,21.84
2017-07-26T07:24:42.392Z,21.92
2017-07-26T07:27:08.563Z,21.97
2017-07-26T07:29:34.775Z,22.01
2017-07-26T07:32:00.965Z,22.03
2017-07-26T07:34:27.933Z,22.05
2017-07-26T07:36:54.139Z,22.12
2017-07-26T07:39:21.050Z,22.12
2017-07-26T07:41:47.291Z,22.12
2017-07-26T07:44:13.472Z,22.10
2017-07-26T07:46:40.416Z,22.04
2017-07-26T07:49:07.362Z,22.07
2017-07-26T07:51:34.499Z,22.09
2017-07-26T07:54:00.682Z,22.19
2017-07-26T07:56:26.854Z,22.28
2017-07-26T07:58:53.048Z,22.34
2017-07-26T08:01:19.282Z,22.40
2017-07-26T08:03:45.451Z,22.44
2017-07-26T08:06:11.665Z,22.47
2017-07-26T08:08:37.860Z,22.50
2017-07-26T08:11:04.967Z,22.53
2017-07-26T08:13:31.321Z,22.56
2017-07-26T08:15:57.510Z,22.60
2017-07-26T08:18:23.711Z,22.64
2017-07-26T08:20:50.738Z,22.69
2017-07-26T08:23:16.939Z,22.71
2017-07-26T08:25:43.131Z,22.70
2017-07-26T08:28:10.141Z,22.70
2017-07-26T08:30:36.323Z,22.69
2017-07-26T08:33:02.506Z,22.69
2017-07-26T08:35:28.683Z,22.71
2017-07-26T08:37:57.317Z,22.73
2017-07-26T08:40:23.507Z,22.76
2017-07-26T08:42:49.691Z,22.78
2017-07-26T08:45:15.900Z,22.80
2017-07-26T08:47:42.071Z,22.81
2017-07-26T08:50:08.271Z,22.81
2017-07-26T08:52:34.438Z,22.84
2017-07-26T08:55:00.608Z,22.89
2017-07-26T08:57:26.787Z,22.91
2017-07-26T08:59:52.975Z,22.89
2017-07-26T09:02:19.717Z,22.91
2017-07-26T09:04:46.092Z,22.92
2017-07-26T09:07:12.288Z,22.94
2017-07-26T09:09:38.682Z,22.95
2017-07-26T09:12:04.976Z,22.97
2017-07-26T09:14:31.274Z,23.00
2017-07-26T09:16:57.442Z,23.02
2017-07-26T09:19:23.634Z,23.04
2017-07-26T09:21:49.847Z,23.07
2017-07-26T09:24:16.078Z,23.07
2017-07-26T09:26:42.270Z,23.07
2017-07-26T09:29:08.570Z,23.10
2017-07-26T09:31:35.730Z,23.09
2017-07-26T09:34:02.824Z,23.09
2017-07-26T09:36:29.048Z,23.10
2017-07-26T09:38:55.445Z,23.08
2017-07-26T09:41:21.829Z,23.12
2017-07-26T09:43:48.032Z,23.12
2017-07-26T09:46:14.980Z,23.12
2017-07-26T09:48:42.102Z,23.13
2017-07-26T09:51:08.471Z,23.16
2017-07-26T09:53:35.395Z,23.11
2017-07-26T09:56:01.755Z,23.14
2017-07-26T09:58:27.955Z,23.12
2017-07-26T10:00:54.175Z,23.14
2017-07-26T10:03:20.446Z,23.15
2017-07-26T10:05:46.649Z,23.18
2017-07-26T10:08:13.193Z,23.20
2017-07-26T10:10:39.394Z,23.20
2017-07-26T10:13:05.591Z,23.20
2017-07-26T10:15:31.840Z,23.20
2017-07-26T10:17:58.788Z,23.20
2017-07-26T10:20:25.898Z,23.21
2017-07-26T10:22:52.424Z,23.21
2017-07-26T10:25:18.610Z,23.18
2017-07-26T10:27:45.581Z,23.13
2017-07-26T10:30:11.778Z,23.07
2017-07-26T10:32:37.955Z,23.03
2017-07-26T10:35:04.148Z,23.03
2017-07-26T10:37:30.326Z,23.02
2017-07-26T10:39:56.520Z,23.03
2017-07-26T10:42:22.703Z,23.04
2017-07-26T10:44:48.867Z,23.10
2017-07-26T10:47:15.047Z,23.10
2017-07-26T10:49:41.227Z,23.07
2017-07-26T10:52:07.835Z,23.14
2017-07-26T10:54:34.204Z,23.21
2017-07-26T10:57:00.409Z,23.24
2017-07-26T10:59:26.711Z,23.27
2017-07-26T11:01:53.140Z,23.32
2017-07-26T11:04:20.144Z,23.34
2017-07-26T11:06:46.383Z,23.35
2017-07-26T11:09:13.122Z,23.34
2017-07-26T11:11:39.318Z,23.36
2017-07-26T11:14:05.507Z,23.35
2017-07-26T11:16:31.742Z,23.31
2017-07-26T11:18:57.918Z,23.26
2017-07-26T11:21:24.840Z,23.33
2017-07-26T11:23:51.031Z,23.37
2017-07-26T11:26:17.216Z,23.40
2017-07-26T11:28:43.408Z,23.42
2017-07-26T11:31:09.591Z,23.47
2017-07-26T11:33:36.519Z,23.48
2017-07-26T11:36:02.726Z,23.49
2017-07-26T11:38:28.933Z,23.49
2017-07-26T11:40:55.135Z,23.51
2017-07-26T11:43:22.066Z,23.51
2017-07-26T11:45:48.252Z,23.52
2017-07-26T11:48:14.455Z,23.54
2017-07-26T11:50:41.366Z,23.55
2017-07-26T11:53:07.545Z,23.56
2017-07-26T11:55:34.484Z,23.54
2017-07-26T11:58:01.401Z,23.55
2017-07-26T12:00:27.600Z,23.51
2017-07-26T12:02:53.783Z,23.51
2017-07-26T12:05:19.997Z,23.58
2017-07-26T12:07:46.202Z,23.59
2017-07-26T12:10:12.852Z,23.56
2017-07-26T12:12:39.026Z,23.59
2017-07-26T12:15:05.235Z,23.60
2017-07-26T12:17:31.394Z,23.63
2017-07-26T12:19:57.598Z,23.64
2017-07-26T12:22:23.764Z,23.65
2017-07-26T12:24:49.941Z,23.65
2017-07-26T12:27:16.136Z,23.66
2017-07-26T12:29:42.303Z,23.65
2017-07-26T12:32:08.495Z,23.66
2017-07-26T12:34:34.674Z,23.67
2017-07-26T12:37:00.894Z,23.67
2017-07-26T12:39:27.076Z,23.64
2017-07-26T12:41:53.327Z,23.66
2017-07-26T12:44:19.502Z,23.68
2017-07-26T12:46:45.716Z,23.65
2017-07-26T12:49:12.651Z,23.68
2017-07-26T12:51:39.570Z,23.67
2017-07-26T12:54:05.746Z,23.64
2017-07-26T12:56:32.681Z,23.63
2017-07-26T12:58:59.687Z,23.63
2017-07-26T13:01:25.876Z,23.65
2017-07-26T13:03:52.860Z,23.67
2017-07-26T13:06:19.035Z,23.68
2017-07-26T13:08:45.221Z,23.68
2017-07-26T13:11:11.469Z,23.58
2017-07-26T13:13:37.655Z,23.48
2017-07-26T13:16:04.572Z,23.57
2017-07-26T13:18:30.761Z,23.64
2017-07-26T13:20:56.958Z,23.70
2017-07-26T13:23:23.181Z,23.75
2017-07-26T13:25:49.355Z,23.75
2017-07-26T13:28:16.258Z,23.78
2017-07-26T13:30:43.540Z,23.79
2017-07-26T13:33:09.723Z,23.80
2017-07-26T13:35:35.945Z,23.82
2017-07-26T13:38:02.124Z,23.85
2017-07-26T13:40:28.351Z,23.86
2017-07-26T13:42:54.531Z,23.86
2017-07-26T13:45:20.718Z,23.85
2017-07-26T13:47:46.925Z,23.88
2017-07-26T13:50:13.107Z,23.90
2017-07-26T13:52:40.016Z,23.92
2017-07-26T13:55:06.210Z,23.91
2017-07-26T13:57:32.387Z,23.90
2017-07-26T13:59:58.611Z,23.89
2017-07-26T14:02:24.797Z,23.85
2017-07-26T14:04:51.703Z,23.83
2017-07-26T14:07:17.891Z,23.78
2017-07-26T14:09:44.806Z,23.78
2017-07-26T14:12:11.008Z,23.81
2017-07-26T14:14:37.195Z,23.83
2017-07-26T14:17:04.207Z,23.85
2017-07-26T14:19:30.562Z,23.91
2017-07-26T14:21:56.730Z,23.91
2017-07-26T14:24:22.924Z,23.91
2017-07-26T14:26:49.110Z,23.92
2017-07-26T14:29:15.276Z,23.93
2017-07-26T14:31:41.459Z,23.85
2017-07-26T14:34:07.634Z,23.85
2017-07-26T14:36:33.838Z,23.87
2017-07-26T14:38:59.989Z,23.86
2017-07-26T14:41:26.153Z,23.91
2017-07-26T14:43:52.322Z,23.86
2017-07-26T14:46:18.494Z,23.85
2017-07-26T14:48:44.693Z,23.91
2017-07-26T14:51:10.863Z,23.87
2017-07-26T14:53:37.056Z,23.86
2017-07-26T14:56:03.271Z,23.87
2017-07-26T14:58:30.215Z,23.93
2017-07-26T15:00:57.180Z,23.93
2017-07-26T15:03:24.101Z,23.99
2017-07-26T15:05:51.058Z,24.00
2017-07-26T15:08:17.283Z,24.02
2017-07-26T15:10:43.472Z,24.04
2017-07-26T15:13:09.672Z,24.08
2017-07-26T15:15:36.945Z,24.01
2017-07-26T15:18:03.852Z,24.05
2017-07-26T15:20:30.031Z,24.11
2017-07-26T15:22:56.244Z,24.10
2017-07-26T15:25:23.174Z,24.06
2017-07-26T15:27:49.355Z,24.04
2017-07-26T15:30:15.566Z,24.05
2017-07-26T15:32:42.477Z,24.11
2017-07-26T15:35:08.651Z,24.13
2017-07-26T15:37:35.614Z,24.14
2017-07-26T15:40:03.052Z,24.13
2017-07-26T15:42:30.267Z,24.13
2017-07-26T15:44:57.422Z,24.13
2017-07-26T15:47:23.598Z,24.15
2017-07-26T15:49:50.690Z,24.13
2017-07-26T15:52:16.861Z,24.10
2017-07-26T15:54:43.048Z,24.12
2017-07-26T15:57:09.239Z,24.08
2017-07-26T15:59:35.420Z,24.05
2017-07-26T16:02:02.130Z,24.07
2017-07-26T16:04:29.039Z,24.11
2017-07-26T16:06:55.240Z,24.13
2017-07-26T16:09:21.432Z,24.03
2017-07-26T16:11:47.631Z,24.07
2017-07-26T16:14:13.844Z,24.00
2017-07-26T16:16:40.040Z,24.06
2017-07-26T16:19:06.963Z,24.07
2017-07-26T16:21:33.131Z,24.12
2017-07-26T16:24:00.042Z,24.10
2017-07-26T16:26:26.287Z,24.12
2017-07-26T16:28:52.454Z,24.08
2017-07-26T16:31:18.660Z,24.09
2017-07-26T16:33:44.984Z,24.11
2017-07-26T16:36:11.172Z,24.12
2017-07-26T16:38:37.396Z,24.14
2017-07-26T16:41:03.631Z,24.15
2017-07-26T16:43:29.804Z,24.13
2017-07-26T16:45:56.051Z,24.14
2017-07-26T16:48:22.248Z,24.17
2017-07-26T16:50:48.447Z,24.16
2017-07-26T16:53:15.476Z,24.13
2017-07-26T16:55:41.643Z,24.11
2017-07-26T16:58:07.813Z,24.10
2017-07-26T17:00:33.974Z,24.10
2017-07-26T17:03:00.182Z,24.07
2017-07-26T17:05:27.647Z,24.08
2017-07-26T17:07:54.608Z,24.08
2017-07-26T17:10:21.500Z,24.07
2017-07-26T17:12:49.519Z,24.06
2017-07-26T17:15:15.960Z,24.08
2017-07-26T17:17:43.004Z,24.04
2017-07-26T17:20:09.255Z,24.05
2017-07-26T17:22:35.723Z,24.04
2017-07-26T17:25:01.939Z,24.03
2017-07-26T17:27:28.122Z,24.02
2017-07-26T17:29:54.342Z,24.03
2017-07-26T17:32:21.451Z,24.02
2017-07-26T17:34:47.635Z,24.06
2017-07-26T17:37:14.078Z,24.06
2017-07-26T17:39:40.250Z,24.01
2017-07-26T17:42:06.442Z,24.01
2017-07-26T17:44:32.730Z,23.97
2017-07-26T17:46:58.891Z,23.98
2017-07-26T17:49:25.979Z,23.97
2017-07-26T17:51:52.348Z,23.98
2017-07-26T17:54:18.559Z,23.92
2017-07-26T17:56:44.735Z,23.95
2017-07-26T17:59:10.910Z,23.91
2017-07-26T18:01:37.101Z,23.93
2017-07-26T18:04:04.218Z,23.94
2017-07-26T18:06:31.263Z,23.89
2017-07-26T18:08:57.491Z,23.90
2017-07-26T18:11:23.671Z,23.92
2017-07-26T18:13:50.752Z,23.87
2017-07-26T18:16:17.087Z,23.80
2017-07-26T18:18:43.400Z,23.74
2017-07-26T18:21:09.956Z,23.81
2017-07-26T18:23:37.026Z,23.74
2017-07-26T18:26:03.397Z,23.77
2017-07-26T18:28:29.672Z,23.73
2017-07-26T18:30:56.642Z,23.71
2017-07-26T18:33:22.949Z,23.81
2017-07-26T18:35:49.160Z,23.84
2017-07-26T18:38:15.340Z,23.83
2017-07-26T18:40:41.563Z,23.83
2017-07-26T18:43:08.509Z,23.85
2017-07-26T18:45:35.438Z,23.87
2017-07-26T18:48:01.632Z,23.89
2017-07-26T18:50:27.827Z,23.87
2017-07-26T18:52:54.742Z,23.87
2017-07-26T18:55:20.916Z,23.90
2017-07-26T18:57:48.132Z,23.92
2017-07-26T19:00:14.347Z,23.90
2017-07-26T19:02:40.522Z,23.91
2017-07-26T19:05:07.459Z,23.90
2017-07-26T19:07:33.644Z,23.86
2017-07-26T19:09:59.828Z,23.84
2017-07-26T19:12:26.036Z,23.81
2017-07-26T19:14:52.251Z,23.77
2017-07-26T19:17:18.439Z,23.75
2017-07-26T19:19:45.463Z,23.71
2017-07-26T19:22:11.669Z,23.70
2017-07-26T19:24:37.900Z,23.67
2017-07-26T19:27:04.091Z,23.71
2017-07-26T19:29:31.017Z,23.78
2017-07-26T19:31:57.216Z,23.85
2017-07-26T19:34:23.455Z,23.88
2017-07-26T19:36:49.680Z,23.90
2017-07-26T19:39:15.852Z,23.90
2017-07-26T19:41:42.081Z,23.91
2017-07-26T19:44:08.304Z,23.91
2017-07-26T19:46:34.494Z,23.93
2017-07-26T19:49:01.446Z,23.93
2017-07-26T19:51:27.630Z,23.94
2017-07-26T19:53:53.819Z,23.95
2017-07-26T19:56:20.003Z,23.95
2017-07-26T19:58:46.182Z,23.96
2017-07-26T20:01:12.415Z,23.94
2017-07-26T20:03:38.625Z,23.93
2017-07-26T20:06:06.530Z,23.94
2017-07-26T20:08:32.769Z,23.93
2017-07-26T20:10:58.977Z,23.91
2017-07-26T20:13:25.920Z,23.90
2017-07-26T20:15:52.852Z,23.91
2017-07-26T20:18:19.083Z,23.90
2017-07-26T20:20:45.267Z,23.91
2017-07-26T20:23:11.569Z,23.90
2017-07-26T20:25:37.829Z,23.88
2017-07-26T20:28:04.030Z,23.88
2017-07-26T20:30:30.218Z,23.90
2017-07-26T20:32:56.405Z,23.90
2017-07-26T20:35:23.332Z,23.90
2017-07-26T20:37:49.548Z,23.88
2017-07-26T20:40:15.784Z,23.90
2017-07-26T20:42:41.964Z,23.90
2017-07-26T20:45:08.905Z,23.90
2017-07-26T20:47:35.828Z,23.91
2017-07-26T20:50:02.086Z,23.91
2017-07-26T20:52:29.027Z,23.90
2017-07-26T20:54:55.226Z,23.89
2017-07-26T20:57:21.561Z,23.87
2017-07-26T20:59:47.812Z,23.87
2017-07-26T21:02:14.077Z,23.87
2017-07-26T21:04:41.003Z,23.88
2017-07-26T21:07:07.209Z,23.89
2017-07-26T21:09:33.429Z,23.87
2017-07-26T21:11:59.603Z,23.87
2017-07-26T21:14:25.806Z,23.87
2017-07-26T21:16:52.064Z,23.86
2017-07-26T21:19:18.243Z,23.85
2017-07-26T21:21:45.163Z,23.86
2017-07-26T21:24:11.330Z,23.88
2017-07-26T21:26:37.566Z,23.89
2017-07-26T21:29:03.748Z,23.90
2017-07-26T21:31:29.930Z,23.91
2017-07-26T21:33:56.106Z,23.90
2017-07-26T21:36:22.290Z,23.90
2017-07-26T21:38:48.495Z,23.91
2017-07-26T21:41:14.675Z,23.91
2017-07-26T21:43:40.890Z,23.91
2017-07-26T21:46:07.063Z,23.89
2017-07-26T21:48:33.233Z,23.89
2017-07-26T21:51:00.226Z,23.90
2017-07-26T21:53:26.567Z,23.90
2017-07-26T21:55:52.799Z,23.91
2017-07-26T21:58:18.980Z,23.90
2017-07-26T22:00:45.151Z,23.91
2017-07-26T22:03:11.356Z,23.92
2017-07-26T22:05:38.275Z,23.91
2017-07-26T22:08:04.458Z,23.90
2017-07-26T22:10:30.656Z,23.90
2017-07-26T22:12:56.879Z,23.89
2017-07-26T22:15:23.082Z,23.89
2017-07-26T22:17:49.298Z,23.89
2017-07-26T22:20:15.530Z,23.88
2017-07-26T22:22:41.705Z,23.88
2017-07-26T22:25:07.889Z,23.89
2017-07-26T22:27:34.077Z,23.89
2017-07-26T22:30:00.281Z,23.89
2017-07-26T22:32:26.492Z,23.88
2017-07-26T22:34:52.669Z,23.88
2017-07-26T22:37:18.859Z,23.87
2017-07-26T22:39:45.072Z,23.87
2017-07-26T22:42:12.020Z,23.88
2017-07-26T22:44:38.958Z,23.89
2017-07-26T22:47:05.131Z,23.87
2017-07-26T22:49:31.298Z,23.86
2017-07-26T22:51:57.494Z,23.87
2017-07-26T22:54:23.679Z,23.87
2017-07-26T22:56:49.873Z,23.86
2017-07-26T22:59:16.046Z,23.85
2017-07-26T23:01:42.215Z,23.86
2017-07-26T23:04:08.444Z,23.86
2017-07-26T23:06:35.355Z,23.86
2017-07-26T23:09:01.532Z,23.87
2017-07-26T23:11:27.716Z,23.86
2017-07-26T23:13:53.917Z,23.87
2017-07-26T23:16:20.101Z,23.86
2017-07-26T23:18:46.273Z,23.87
2017-07-26T23:21:12.471Z,23.86
2017-07-26T23:38:23.303Z,23.81
2017-07-26T23:40:49.471Z,23.81
2017-07-26T23:43:15.634Z,23.81
2017-07-26T23:45:42.433Z,23.83
2017-07-26T23:48:08.607Z,23.84
2017-07-26T23:50:34.804Z,23.85
2017-07-26T23:53:00.976Z,23.85
2017-07-26T23:55:27.159Z,23.85
2017-07-26T23:57:53.800Z,23.85
